sensor_id;sensor_type;location;lat;lon;timestamp;pressure;altitude;pressure_sealevel;temperature;humidity
62333;BME280;48624;49.812;8.562;2023-01-28T00:00:01;101445.00;;;2.27;94.03
62333;BME280;48624;49.812;8.562;2023-01-28T00:02:26;101439.13;;;2.62;91.89
62333;BME280;48624;49.812;8.562;2023-01-28T00:04:52;101439.53;;;2.42;92.64
62333;BME280;48624;49.812;8.562;2023-01-28T00:07:17;101440.59;;;2.29;93.03
62333;BME280;48624;49.812;8.562;2023-01-28T00:09:43;101437.31;;;2.19;93.94
62333;BME280;48624;49.812;8.562;2023-01-28T00:12:08;101434.69;;;2.19;94.14
62333;BME280;48624;49.812;8.562;2023-01-28T00:14:34;101428.16;;;2.43;93.22
62333;BME280;48624;49.812;8.562;2023-01-28T00:16:59;101435.75;;;2.57;93.12
62333;BME280;48624;49.812;8.562;2023-01-28T00:19:24;101431.19;;;2.20;94.69
62333;BME280;48624;49.812;8.562;2023-01-28T00:21:50;101430.63;;;2.53;93.13
62333;BME280;48624;49.812;8.562;2023-01-28T00:24:15;101432.03;;;2.20;94.90
62333;BME280;48624;49.812;8.562;2023-01-28T00:26:40;101434.28;;;2.42;94.10
62333;BME280;48624;49.812;8.562;2023-01-28T00:29:06;101425.84;;;2.73;92.19
62333;BME280;48624;49.812;8.562;2023-01-28T00:31:31;101426.38;;;2.45;92.59
62333;BME280;48624;49.812;8.562;2023-01-28T00:33:58;101420.00;;;2.08;94.36
62333;BME280;48624;49.812;8.562;2023-01-28T00:36:24;101423.28;;;2.21;93.60
62333;BME280;48624;49.812;8.562;2023-01-28T00:38:54;101427.16;;;1.99;94.79
62333;BME280;48624;49.812;8.562;2023-01-28T00:41:22;101435.66;;;2.12;93.84
62333;BME280;48624;49.812;8.562;2023-01-28T00:43:48;101424.56;;;1.99;94.88
62333;BME280;48624;49.812;8.562;2023-01-28T00:46:14;101425.25;;;2.08;93.73
62333;BME280;48624;49.812;8.562;2023-01-28T00:48:40;101428.13;;;1.93;95.75
62333;BME280;48624;49.812;8.562;2023-01-28T00:51:08;101431.38;;;2.07;94.75
62333;BME280;48624;49.812;8.562;2023-01-28T00:53:34;101431.63;;;1.92;95.63
62333;BME280;48624;49.812;8.562;2023-01-28T00:56:00;101424.84;;;1.80;96.57
62333;BME280;48624;49.812;8.562;2023-01-28T00:58:25;101433.91;;;2.12;94.62
62333;BME280;48624;49.812;8.562;2023-01-28T01:00:51;101431.94;;;2.25;94.58
62333;BME280;48624;49.812;8.562;2023-01-28T01:03:16;101436.75;;;1.98;94.33
62333;BME280;48624;49.812;8.562;2023-01-28T01:05:42;101434.03;;;2.04;95.44
62333;BME280;48624;49.812;8.562;2023-01-28T01:08:07;101429.84;;;1.94;95.80
62333;BME280;48624;49.812;8.562;2023-01-28T01:10:32;101438.16;;;2.18;94.83
62333;BME280;48624;49.812;8.562;2023-01-28T01:12:58;101436.75;;;1.98;95.14
62333;BME280;48624;49.812;8.562;2023-01-28T01:15:24;101441.13;;;1.96;95.58
62333;BME280;48624;49.812;8.562;2023-01-28T01:17:49;101443.69;;;2.01;94.93
62333;BME280;48624;49.812;8.562;2023-01-28T01:20:24;101442.41;;;2.25;93.39
62333;BME280;48624;49.812;8.562;2023-01-28T01:22:51;101454.34;;;1.88;96.26
62333;BME280;48624;49.812;8.562;2023-01-28T01:25:17;101451.78;;;1.84;95.54
62333;BME280;48624;49.812;8.562;2023-01-28T01:27:43;101439.56;;;1.87;94.72
62333;BME280;48624;49.812;8.562;2023-01-28T01:30:13;101450.13;;;1.78;94.84
62333;BME280;48624;49.812;8.562;2023-01-28T01:32:39;101456.34;;;1.71;95.09
62333;BME280;48624;49.812;8.562;2023-01-28T01:35:05;101451.91;;;1.76;95.26
62333;BME280;48624;49.812;8.562;2023-01-28T01:37:36;101448.50;;;1.72;95.08
62333;BME280;48624;49.812;8.562;2023-01-28T01:40:03;101450.97;;;1.82;94.86
62333;BME280;48624;49.812;8.562;2023-01-28T01:42:31;101456.31;;;2.27;93.00
62333;BME280;48624;49.812;8.562;2023-01-28T01:45:00;101458.69;;;1.88;94.85
62333;BME280;48624;49.812;8.562;2023-01-28T01:48:03;101455.16;;;1.92;93.96
62333;BME280;48624;49.812;8.562;2023-01-28T01:50:35;101454.00;;;2.08;93.46
62333;BME280;48624;49.812;8.562;2023-01-28T01:53:10;101456.97;;;1.87;94.57
62333;BME280;48624;49.812;8.562;2023-01-28T01:55:40;101450.78;;;1.92;92.63
62333;BME280;48624;49.812;8.562;2023-01-28T01:58:10;101446.44;;;1.93;93.62
62333;BME280;48624;49.812;8.562;2023-01-28T02:00:38;101458.69;;;1.88;93.61
62333;BME280;48624;49.812;8.562;2023-01-28T02:03:04;101447.59;;;1.73;94.58
62333;BME280;48624;49.812;8.562;2023-01-28T02:05:30;101457.78;;;1.90;93.66
62333;BME280;48624;49.812;8.562;2023-01-28T02:07:57;101465.84;;;1.76;94.12
62333;BME280;48624;49.812;8.562;2023-01-28T02:10:42;101463.16;;;1.79;93.45
62333;BME280;48624;49.812;8.562;2023-01-28T02:13:08;101458.66;;;1.91;93.27
62333;BME280;48624;49.812;8.562;2023-01-28T02:15:33;101457.16;;;1.73;94.81
62333;BME280;48624;49.812;8.562;2023-01-28T02:17:59;101463.97;;;1.86;93.68
62333;BME280;48624;49.812;8.562;2023-01-28T02:20:47;101467.03;;;2.12;92.27
62333;BME280;48624;49.812;8.562;2023-01-28T02:23:43;101463.91;;;1.88;92.32
62333;BME280;48624;49.812;8.562;2023-01-28T02:29:30;101463.97;;;1.86;93.96
62333;BME280;48624;49.812;8.562;2023-01-28T02:32:24;101458.94;;;1.72;94.14
62333;BME280;48624;49.812;8.562;2023-01-28T02:35:02;101461.69;;;1.60;93.76
62333;BME280;48624;49.812;8.562;2023-01-28T02:37:37;101457.91;;;1.83;93.50
62333;BME280;48624;49.812;8.562;2023-01-28T02:40:10;101458.88;;;1.75;93.95
62333;BME280;48624;49.812;8.562;2023-01-28T02:42:37;101465.91;;;1.70;93.60
62333;BME280;48624;49.812;8.562;2023-01-28T02:45:33;101463.91;;;1.88;91.96
62333;BME280;48624;49.812;8.562;2023-01-28T02:48:21;101458.19;;;1.62;94.07
62333;BME280;48624;49.812;8.562;2023-01-28T02:51:05;101462.06;;;1.96;92.32
62333;BME280;48624;49.812;8.562;2023-01-28T02:53:44;101460.25;;;2.01;91.28
62333;BME280;48624;49.812;8.562;2023-01-28T02:56:23;101476.19;;;1.83;92.68
62333;BME280;48624;49.812;8.562;2023-01-28T02:59:12;101476.69;;;2.08;92.28
62333;BME280;48624;49.812;8.562;2023-01-28T03:04:44;101473.44;;;1.92;93.33
62333;BME280;48624;49.812;8.562;2023-01-28T03:07:12;101469.19;;;1.86;93.36
62333;BME280;48624;49.812;8.562;2023-01-28T03:09:42;101475.88;;;1.43;95.18
62333;BME280;48624;49.812;8.562;2023-01-28T03:12:15;101475.78;;;1.49;95.63
62333;BME280;48624;49.812;8.562;2023-01-28T03:15:14;101469.72;;;1.47;95.76
62333;BME280;48624;49.812;8.562;2023-01-28T03:18:15;101475.13;;;1.32;95.90
62333;BME280;48624;49.812;8.562;2023-01-28T03:24:10;101476.47;;;1.62;94.52
62333;BME280;48624;49.812;8.562;2023-01-28T03:27:01;101469.91;;;1.32;95.72
62333;BME280;48624;49.812;8.562;2023-01-28T03:29:46;101469.84;;;1.38;96.20
62333;BME280;48624;49.812;8.562;2023-01-28T03:32:32;101476.00;;;1.34;97.45
62333;BME280;48624;49.812;8.562;2023-01-28T03:35:19;101476.78;;;1.41;96.74
62333;BME280;48624;49.812;8.562;2023-01-28T03:38:06;101488.13;;;1.36;97.57
62333;BME280;48624;49.812;8.562;2023-01-28T03:40:56;101486.47;;;1.31;97.17
62333;BME280;48624;49.812;8.562;2023-01-28T03:43:22;101487.75;;;1.66;95.99
62333;BME280;48624;49.812;8.562;2023-01-28T03:45:49;101494.75;;;1.64;96.39
62333;BME280;48624;49.812;8.562;2023-01-28T03:48:21;101493.28;;;1.41;96.60
62333;BME280;48624;49.812;8.562;2023-01-28T03:50:47;101488.84;;;1.49;96.47
62333;BME280;48624;49.812;8.562;2023-01-28T03:53:15;101497.69;;;1.37;96.55
62333;BME280;48624;49.812;8.562;2023-01-28T03:55:44;101496.44;;;1.68;95.13
62333;BME280;48624;49.812;8.562;2023-01-28T03:58:11;101502.19;;;1.26;97.27
62333;BME280;48624;49.812;8.562;2023-01-28T04:00:37;101504.78;;;1.26;97.60
62333;BME280;48624;49.812;8.562;2023-01-28T04:03:13;101508.19;;;1.34;96.48
62333;BME280;48624;49.812;8.562;2023-01-28T04:05:57;101501.16;;;1.40;96.48
62333;BME280;48624;49.812;8.562;2023-01-28T04:08:24;101511.72;;;1.29;98.50
62333;BME280;48624;49.812;8.562;2023-01-28T04:10:49;101503.56;;;1.55;98.19
62333;BME280;48624;49.812;8.562;2023-01-28T04:13:15;101512.44;;;1.43;96.42
62333;BME280;48624;49.812;8.562;2023-01-28T04:15:41;101506.41;;;1.38;97.47
62333;BME280;48624;49.812;8.562;2023-01-28T04:18:07;101510.00;;;1.28;98.71
62333;BME280;48624;49.812;8.562;2023-01-28T04:20:33;101511.09;;;1.09;98.49
62333;BME280;48624;49.812;8.562;2023-01-28T04:22:58;101506.41;;;1.36;98.12
62333;BME280;48624;49.812;8.562;2023-01-28T04:25:24;101511.66;;;1.35;98.17
62333;BME280;48624;49.812;8.562;2023-01-28T04:27:49;101514.44;;;1.19;98.79
62333;BME280;48624;49.812;8.562;2023-01-28T04:30:14;101514.41;;;1.22;98.49
62333;BME280;48624;49.812;8.562;2023-01-28T04:32:40;101518.53;;;1.42;97.86
62333;BME280;48624;49.812;8.562;2023-01-28T04:35:06;101515.94;;;1.41;96.43
62333;BME280;48624;49.812;8.562;2023-01-28T04:37:31;101518.50;;;1.45;97.18
62333;BME280;48624;49.812;8.562;2023-01-28T04:39:56;101517.75;;;1.35;96.79
62333;BME280;48624;49.812;8.562;2023-01-28T04:42:22;101518.38;;;1.55;96.88
62333;BME280;48624;49.812;8.562;2023-01-28T04:44:47;101515.72;;;1.59;95.87
62333;BME280;48624;49.812;8.562;2023-01-28T04:47:12;101515.34;;;1.20;97.49
62333;BME280;48624;49.812;8.562;2023-01-28T04:49:37;101518.84;;;1.17;98.35
62333;BME280;48624;49.812;8.562;2023-01-28T04:52:03;101518.50;;;1.45;96.55
62333;BME280;48624;49.812;8.562;2023-01-28T04:54:28;101516.84;;;1.36;97.32
62333;BME280;48624;49.812;8.562;2023-01-28T04:56:53;101522.78;;;1.49;97.35
62333;BME280;48624;49.812;8.562;2023-01-28T04:59:20;101526.41;;;1.37;97.07
62333;BME280;48624;49.812;8.562;2023-01-28T05:01:45;101528.28;;;1.29;98.09
62333;BME280;48624;49.812;8.562;2023-01-28T05:04:10;101528.00;;;1.52;95.96
62333;BME280;48624;49.812;8.562;2023-01-28T05:06:36;101531.56;;;1.44;97.83
62333;BME280;48624;49.812;8.562;2023-01-28T05:09:01;101526.56;;;1.27;98.52
62333;BME280;48624;49.812;8.562;2023-01-28T05:11:27;101537.84;;;1.27;96.84
62333;BME280;48624;49.812;8.562;2023-01-28T05:13:53;101527.50;;;1.19;98.09
62333;BME280;48624;49.812;8.562;2023-01-28T05:16:19;101541.28;;;1.31;98.08
62333;BME280;48624;49.812;8.562;2023-01-28T05:18:44;101540.94;;;1.60;96.22
62333;BME280;48624;49.812;8.562;2023-01-28T05:21:12;101534.13;;;1.50;95.82
62333;BME280;48624;49.812;8.562;2023-01-28T05:23:38;101536.22;;;1.18;98.46
62333;BME280;48624;49.812;8.562;2023-01-28T05:26:03;101545.41;;;1.54;96.92
62333;BME280;48624;49.812;8.562;2023-01-28T05:28:29;101540.88;;;1.65;95.11
62333;BME280;48624;49.812;8.562;2023-01-28T05:30:54;101537.91;;;1.24;96.82
62333;BME280;48624;49.812;8.562;2023-01-28T05:33:19;101541.53;;;1.07;98.39
62333;BME280;48624;49.812;8.562;2023-01-28T05:35:44;101549.47;;;0.98;98.60
62333;BME280;48624;49.812;8.562;2023-01-28T05:38:10;101548.44;;;1.16;97.88
62333;BME280;48624;49.812;8.562;2023-01-28T05:40:35;101557.56;;;1.53;95.43
62333;BME280;48624;49.812;8.562;2023-01-28T05:43:00;101560.50;;;1.25;96.08
62333;BME280;48624;49.812;8.562;2023-01-28T05:45:26;101553.59;;;1.19;96.51
62333;BME280;48624;49.812;8.562;2023-01-28T05:47:51;101557.06;;;1.23;97.29
62333;BME280;48624;49.812;8.562;2023-01-28T05:50:17;101554.13;;;1.49;94.83
62333;BME280;48624;49.812;8.562;2023-01-28T05:52:42;101564.63;;;1.48;95.50
62333;BME280;48624;49.812;8.562;2023-01-28T05:55:08;101555.13;;;1.39;95.08
62333;BME280;48624;49.812;8.562;2023-01-28T05:57:33;101561.47;;;1.16;95.37
62333;BME280;48624;49.812;8.562;2023-01-28T05:59:59;101564.69;;;1.42;94.96
62333;BME280;48624;49.812;8.562;2023-01-28T06:02:24;101580.03;;;1.68;94.11
62333;BME280;48624;49.812;8.562;2023-01-28T06:04:49;101578.59;;;1.42;95.24
62333;BME280;48624;49.812;8.562;2023-01-28T06:07:14;101582.28;;;1.24;94.81
62333;BME280;48624;49.812;8.562;2023-01-28T06:09:45;101575.31;;;1.24;94.40
62333;BME280;48624;49.812;8.562;2023-01-28T06:12:10;101578.53;;;1.48;93.39
62333;BME280;48624;49.812;8.562;2023-01-28T06:14:35;101586.31;;;1.53;93.78
62333;BME280;48624;49.812;8.562;2023-01-28T06:17:01;101586.13;;;1.67;93.23
62333;BME280;48624;49.812;8.562;2023-01-28T06:19:26;101593.66;;;1.20;94.16
62333;BME280;48624;49.812;8.562;2023-01-28T06:21:53;101593.41;;;1.43;93.12
62333;BME280;48624;49.812;8.562;2023-01-28T06:24:18;101592.66;;;1.29;94.33
62333;BME280;48624;49.812;8.562;2023-01-28T06:26:44;101592.72;;;1.24;93.93
62333;BME280;48624;49.812;8.562;2023-01-28T06:29:09;101599.19;;;1.69;93.00
62333;BME280;48624;49.812;8.562;2023-01-28T06:31:34;101601.28;;;1.38;92.23
62333;BME280;48624;49.812;8.562;2023-01-28T06:34:00;101605.56;;;1.43;92.36
62333;BME280;48624;49.812;8.562;2023-01-28T06:36:25;101605.03;;;1.88;90.22
62333;BME280;48624;49.812;8.562;2023-01-28T06:38:51;101609.75;;;1.56;92.07
62333;BME280;48624;49.812;8.562;2023-01-28T06:41:16;101616.97;;;1.35;91.90
62333;BME280;48624;49.812;8.562;2023-01-28T06:43:41;101615.47;;;1.11;92.84
62333;BME280;48624;49.812;8.562;2023-01-28T06:46:07;101610.09;;;1.27;93.12
62333;BME280;48624;49.812;8.562;2023-01-28T06:48:32;101616.84;;;1.48;91.80
62333;BME280;48624;49.812;8.562;2023-01-28T06:50:58;101616.59;;;1.70;89.96
62333;BME280;48624;49.812;8.562;2023-01-28T06:53:23;101616.75;;;1.56;90.52
62333;BME280;48624;49.812;8.562;2023-01-28T06:55:48;101623.84;;;1.43;91.43
62333;BME280;48624;49.812;8.562;2023-01-28T06:58:14;101625.44;;;1.56;90.46
62333;BME280;48624;49.812;8.562;2023-01-28T07:00:39;101633.16;;;1.65;90.91
62333;BME280;48624;49.812;8.562;2023-01-28T07:03:05;101619.94;;;1.79;90.33
62333;BME280;48624;49.812;8.562;2023-01-28T07:05:30;101642.28;;;1.29;91.85
62333;BME280;48624;49.812;8.562;2023-01-28T07:07:56;101631.63;;;1.47;90.87
62333;BME280;48624;49.812;8.562;2023-01-28T07:10:21;101641.16;;;1.53;92.03
62333;BME280;48624;49.812;8.562;2023-01-28T07:12:46;101636.81;;;1.52;90.17
62333;BME280;48624;49.812;8.562;2023-01-28T07:15:12;101637.59;;;1.60;91.13
62333;BME280;48624;49.812;8.562;2023-01-28T07:17:40;101630.59;;;1.62;91.13
62333;BME280;48624;49.812;8.562;2023-01-28T07:20:08;101635.09;;;1.52;90.34
62333;BME280;48624;49.812;8.562;2023-01-28T07:22:37;101623.72;;;1.55;90.00
62333;BME280;48624;49.812;8.562;2023-01-28T07:25:04;101638.00;;;1.21;92.11
62333;BME280;48624;49.812;8.562;2023-01-28T07:27:29;101630.00;;;1.37;92.16
62333;BME280;48624;49.812;8.562;2023-01-28T07:29:55;101634.66;;;1.87;89.69
62333;BME280;48624;49.812;8.562;2023-01-28T07:32:20;101635.63;;;1.79;88.92
62333;BME280;48624;49.812;8.562;2023-01-28T07:34:45;101642.91;;;1.52;90.33
62333;BME280;48624;49.812;8.562;2023-01-28T07:37:11;101639.91;;;1.87;89.82
62333;BME280;48624;49.812;8.562;2023-01-28T07:39:36;101640.16;;;1.63;90.02
62333;BME280;48624;49.812;8.562;2023-01-28T07:42:01;101647.47;;;1.32;91.12
62333;BME280;48624;49.812;8.562;2023-01-28T07:44:27;101639.53;;;1.44;91.09
62333;BME280;48624;49.812;8.562;2023-01-28T07:46:52;101650.41;;;1.84;88.95
62333;BME280;48624;49.812;8.562;2023-01-28T07:49:18;101645.53;;;1.51;89.97
62333;BME280;48624;49.812;8.562;2023-01-28T07:51:43;101648.28;;;1.37;90.83
62333;BME280;48624;49.812;8.562;2023-01-28T07:54:11;101656.03;;;1.45;91.12
62333;BME280;48624;49.812;8.562;2023-01-28T07:56:36;101668.25;;;1.41;91.44
62333;BME280;48624;49.812;8.562;2023-01-28T07:59:02;101656.13;;;1.35;90.69
62333;BME280;48624;49.812;8.562;2023-01-28T08:01:27;101660.97;;;1.74;90.75
62333;BME280;48624;49.812;8.562;2023-01-28T08:03:52;101661.06;;;1.65;89.71
62333;BME280;48624;49.812;8.562;2023-01-28T08:06:18;101662.88;;;1.58;89.63
62333;BME280;48624;49.812;8.562;2023-01-28T08:08:43;101661.41;;;2.07;88.72
62333;BME280;48624;49.812;8.562;2023-01-28T08:11:09;101666.00;;;1.90;87.94
62333;BME280;48624;49.812;8.562;2023-01-28T08:13:35;101675.19;;;2.20;88.25
62333;BME280;48624;49.812;8.562;2023-01-28T08:16:01;101667.88;;;1.78;88.06
62333;BME280;48624;49.812;8.562;2023-01-28T08:18:26;101667.94;;;1.72;87.62
62333;BME280;48624;49.812;8.562;2023-01-28T08:20:58;101669.84;;;1.58;87.84
62333;BME280;48624;49.812;8.562;2023-01-28T08:23:25;101679.81;;;1.98;86.71
62333;BME280;48624;49.812;8.562;2023-01-28T08:25:52;101678.75;;;2.15;86.70
62333;BME280;48624;49.812;8.562;2023-01-28T08:28:18;101671.03;;;2.04;86.89
62333;BME280;48624;49.812;8.562;2023-01-28T08:30:44;101676.84;;;2.29;85.83
62333;BME280;48624;49.812;8.562;2023-01-28T08:33:11;101686.72;;;2.05;85.70
62333;BME280;48624;49.812;8.562;2023-01-28T08:35:37;101683.69;;;2.38;85.44
62333;BME280;48624;49.812;8.562;2023-01-28T08:38:04;101681.41;;;2.12;86.06
62333;BME280;48624;49.812;8.562;2023-01-28T08:40:30;101682.97;;;2.28;85.92
62333;BME280;48624;49.812;8.562;2023-01-28T08:42:55;101681.50;;;2.05;84.96
62333;BME280;48624;49.812;8.562;2023-01-28T08:45:22;101679.91;;;1.92;85.58
62333;BME280;48624;49.812;8.562;2023-01-28T08:48:00;101687.72;;;1.93;86.12
62333;BME280;48624;49.812;8.562;2023-01-28T08:50:28;101684.25;;;1.91;85.63
62333;BME280;48624;49.812;8.562;2023-01-28T08:52:58;101685.31;;;2.47;83.47
62333;BME280;48624;49.812;8.562;2023-01-28T08:55:25;101688.97;;;2.32;85.26
62333;BME280;48624;49.812;8.562;2023-01-28T08:57:50;101689.34;;;2.04;85.34
62333;BME280;48624;49.812;8.562;2023-01-28T09:00:17;101684.09;;;2.07;84.92
62333;BME280;48624;49.812;8.562;2023-01-28T09:02:42;101679.94;;;1.89;86.27
62333;BME280;48624;49.812;8.562;2023-01-28T09:05:08;101677.28;;;1.93;85.84
62333;BME280;48624;49.812;8.562;2023-01-28T09:07:34;101693.94;;;1.83;86.06
62333;BME280;48624;49.812;8.562;2023-01-28T09:09:59;101697.22;;;2.01;84.95
62333;BME280;48624;49.812;8.562;2023-01-28T09:12:25;101702.47;;;2.01;85.95
62333;BME280;48624;49.812;8.562;2023-01-28T09:14:51;101696.38;;;2.00;83.45
62333;BME280;48624;49.812;8.562;2023-01-28T09:17:17;101695.50;;;2.00;83.68
62333;BME280;48624;49.812;8.562;2023-01-28T09:19:42;101706.50;;;2.27;83.20
62333;BME280;48624;49.812;8.562;2023-01-28T09:22:07;101702.72;;;1.77;84.90
62333;BME280;48624;49.812;8.562;2023-01-28T09:24:32;101710.47;;;2.57;81.32
62333;BME280;48624;49.812;8.562;2023-01-28T09:26:58;101701.94;;;2.41;81.31
62333;BME280;48624;49.812;8.562;2023-01-28T09:29:23;101710.13;;;2.15;82.83
62333;BME280;48624;49.812;8.562;2023-01-28T09:31:48;101715.56;;;2.65;80.56
62333;BME280;48624;49.812;8.562;2023-01-28T09:34:14;101710.53;;;2.51;80.30
62333;BME280;48624;49.812;8.562;2023-01-28T09:36:39;101722.91;;;2.40;82.27
62333;BME280;48624;49.812;8.562;2023-01-28T09:39:04;101730.66;;;2.46;80.66
62333;BME280;48624;49.812;8.562;2023-01-28T09:45:20;101715.13;;;2.33;81.69
62333;BME280;48624;49.812;8.562;2023-01-28T09:50:16;101718.22;;;2.63;80.05
62333;BME280;48624;49.812;8.562;2023-01-28T09:52:44;101725.47;;;2.43;80.44
62333;BME280;48624;49.812;8.562;2023-01-28T09:55:19;101724.91;;;2.19;81.00
62333;BME280;48624;49.812;8.562;2023-01-28T09:57:50;101728.13;;;2.40;79.78
62333;BME280;48624;49.812;8.562;2023-01-28T10:00:20;101723.44;;;3.22;77.86
62333;BME280;48624;49.812;8.562;2023-01-28T10:14:47;101731.09;;;2.79;78.51
62333;BME280;48624;49.812;8.562;2023-01-28T10:17:12;101732.44;;;2.44;79.76
62333;BME280;48624;49.812;8.562;2023-01-28T10:19:50;101726.66;;;2.83;78.18
62333;BME280;48624;49.812;8.562;2023-01-28T10:22:23;101735.44;;;2.78;78.86
62333;BME280;48624;49.812;8.562;2023-01-28T10:24:55;101735.88;;;2.47;79.19
62333;BME280;48624;49.812;8.562;2023-01-28T10:27:29;101735.16;;;2.97;77.18
62333;BME280;48624;49.812;8.562;2023-01-28T10:29:57;101728.22;;;2.32;80.79
62333;BME280;48624;49.812;8.562;2023-01-28T10:32:32;101744.78;;;2.31;81.06
62333;BME280;48624;49.812;8.562;2023-01-28T10:35:01;101730.47;;;2.60;80.08
62333;BME280;48624;49.812;8.562;2023-01-28T10:37:32;101737.16;;;2.81;78.72
62333;BME280;48624;49.812;8.562;2023-01-28T10:39:59;101735.47;;;2.77;79.36
62333;BME280;48624;49.812;8.562;2023-01-28T10:42:35;101742.06;;;3.03;77.73
62333;BME280;48624;49.812;8.562;2023-01-28T10:45:14;101748.03;;;3.13;77.47
62333;BME280;48624;49.812;8.562;2023-01-28T10:47:45;101743.88;;;2.99;78.53
62333;BME280;48624;49.812;8.562;2023-01-28T10:50:23;101746.44;;;3.04;75.92
62333;BME280;48624;49.812;8.562;2023-01-28T10:52:59;101738.72;;;2.95;77.93
62333;BME280;48624;49.812;8.562;2023-01-28T10:55:28;101744.22;;;2.74;77.68
62333;BME280;48624;49.812;8.562;2023-01-28T10:57:55;101745.09;;;2.75;78.75
62333;BME280;48624;49.812;8.562;2023-01-28T11:00:26;101748.56;;;2.77;78.39
62333;BME280;48624;49.812;8.562;2023-01-28T11:02:55;101743.47;;;2.64;78.13
62333;BME280;48624;49.812;8.562;2023-01-28T11:05:26;101740.81;;;3.27;76.95
62333;BME280;48624;49.812;8.562;2023-01-28T11:10:37;101746.44;;;3.57;76.16
62333;BME280;48624;49.812;8.562;2023-01-28T11:13:04;101743.31;;;3.35;75.65
62333;BME280;48624;49.812;8.562;2023-01-28T11:15:31;101741.75;;;3.22;78.14
62333;BME280;48624;49.812;8.562;2023-01-28T11:18:21;101754.41;;;2.95;76.66
62333;BME280;48624;49.812;8.562;2023-01-28T11:20:52;101746.59;;;2.91;77.12
62333;BME280;48624;49.812;8.562;2023-01-28T11:23:31;101742.84;;;3.61;74.15
62333;BME280;48624;49.812;8.562;2023-01-28T11:26:00;101739.72;;;3.41;75.30
62333;BME280;48624;49.812;8.562;2023-01-28T11:28:27;101746.84;;;3.32;76.17
62333;BME280;48624;49.812;8.562;2023-01-28T11:30:55;101752.50;;;3.59;74.61
62333;BME280;48624;49.812;8.562;2023-01-28T11:33:36;101743.69;;;3.64;74.33
62333;BME280;48624;49.812;8.562;2023-01-28T11:36:12;101738.16;;;3.81;75.33
62333;BME280;48624;49.812;8.562;2023-01-28T11:38:50;101748.00;;;3.68;72.97
62333;BME280;48624;49.812;8.562;2023-01-28T11:41:17;101738.34;;;3.68;73.57
62333;BME280;48624;49.812;8.562;2023-01-28T11:43:43;101727.94;;;3.65;72.82
62333;BME280;48624;49.812;8.562;2023-01-28T11:52:00;101731.03;;;3.39;73.25
62333;BME280;48624;49.812;8.562;2023-01-28T11:57:26;101734.41;;;3.45;73.16
62333;BME280;48624;49.812;8.562;2023-01-28T12:00:19;101726.88;;;3.25;74.52
62333;BME280;48624;49.812;8.562;2023-01-28T12:03:20;101729.09;;;2.97;75.50
62333;BME280;48624;49.812;8.562;2023-01-28T12:05:52;101731.38;;;3.17;74.08
62333;BME280;48624;49.812;8.562;2023-01-28T12:14:55;101725.16;;;2.66;75.35
62333;BME280;48624;49.812;8.562;2023-01-28T12:22:14;101713.19;;;3.08;74.37
62333;BME280;48624;49.812;8.562;2023-01-28T12:25:19;101721.81;;;3.14;73.28
62333;BME280;48624;49.812;8.562;2023-01-28T12:27:51;101718.47;;;3.04;73.68
62333;BME280;48624;49.812;8.562;2023-01-28T12:41:00;101718.59;;;2.35;78.75
62333;BME280;48624;49.812;8.562;2023-01-28T12:46:25;101718.53;;;3.01;75.47
62333;BME280;48624;49.812;8.562;2023-01-28T12:49:07;101722.97;;;2.35;76.51
62333;BME280;48624;49.812;8.562;2023-01-28T12:51:46;101723.03;;;2.30;77.45
62333;BME280;48624;49.812;8.562;2023-01-28T12:54:40;101719.97;;;2.63;75.83
62333;BME280;48624;49.812;8.562;2023-01-28T12:57:14;101720.41;;;2.30;76.00
62333;BME280;48624;49.812;8.562;2023-01-28T12:59:48;101721.19;;;2.35;76.81
62333;BME280;48624;49.812;8.562;2023-01-28T13:02:23;101714.09;;;2.45;75.46
62333;BME280;48624;49.812;8.562;2023-01-28T13:05:01;101710.91;;;2.84;73.56
62333;BME280;48624;49.812;8.562;2023-01-28T13:07:47;101709.25;;;2.78;73.78
62333;BME280;48624;49.812;8.562;2023-01-28T13:12:49;101702.38;;;2.73;74.58
62333;BME280;48624;49.812;8.562;2023-01-28T13:15:16;101709.00;;;2.34;75.60
62333;BME280;48624;49.812;8.562;2023-01-28T13:17:58;101710.69;;;2.40;75.51
62333;BME280;48624;49.812;8.562;2023-01-28T13:20:49;101727.19;;;2.45;75.19
62333;BME280;48624;49.812;8.562;2023-01-28T13:28:45;101720.13;;;2.52;73.84
62333;BME280;48624;49.812;8.562;2023-01-28T13:31:12;101733.38;;;2.38;74.19
62333;BME280;48624;49.812;8.562;2023-01-28T13:33:45;101738.66;;;2.35;75.07
62333;BME280;48624;49.812;8.562;2023-01-28T13:38:43;101745.63;;;2.36;74.86
62333;BME280;48624;49.812;8.562;2023-01-28T13:41:09;101757.44;;;1.94;75.86
62333;BME280;48624;49.812;8.562;2023-01-28T13:43:37;101746.53;;;2.32;73.41
62333;BME280;48624;49.812;8.562;2023-01-28T13:46:12;101763.47;;;2.00;74.36
62333;BME280;48624;49.812;8.562;2023-01-28T13:48:55;101754.72;;;2.02;75.26
62333;BME280;48624;49.812;8.562;2023-01-28T13:51:23;101760.69;;;2.15;75.18
62333;BME280;48624;49.812;8.562;2023-01-28T13:54:01;101761.03;;;1.83;75.79
62333;BME280;48624;49.812;8.562;2023-01-28T13:56:34;101775.78;;;1.90;76.37
62333;BME280;48624;49.812;8.562;2023-01-28T13:59:16;101781.19;;;1.71;77.13
62333;BME280;48624;49.812;8.562;2023-01-28T14:05:04;101773.41;;;1.65;75.67
62333;BME280;48624;49.812;8.562;2023-01-28T14:13:46;101777.91;;;2.32;71.82
62333;BME280;48624;49.812;8.562;2023-01-28T14:18:59;101792.06;;;2.15;71.75
62333;BME280;48624;49.812;8.562;2023-01-28T14:21:26;101787.97;;;1.89;72.59
62333;BME280;48624;49.812;8.562;2023-01-28T14:23:54;101789.06;;;1.66;73.48
62333;BME280;48624;49.812;8.562;2023-01-28T14:26:30;101788.22;;;1.63;73.94
62333;BME280;48624;49.812;8.562;2023-01-28T14:31:38;101789.91;;;1.65;72.80
62333;BME280;48624;49.812;8.562;2023-01-28T14:34:19;101796.81;;;1.74;71.81
62333;BME280;48624;49.812;8.562;2023-01-28T14:36:47;101798.59;;;1.69;71.58
62333;BME280;48624;49.812;8.562;2023-01-28T14:39:19;101799.69;;;1.45;71.27
62333;BME280;48624;49.812;8.562;2023-01-28T14:41:48;101789.22;;;1.46;70.71